createdAt,value
2018-12-11T00:03:28.271Z,3.35
2018-12-11T00:08:30.469Z,3.44
2018-12-11T00:13:32.677Z,3.41
2018-12-11T00:18:34.961Z,3.41
2018-12-11T00:23:37.135Z,3.53
2018-12-11T00:28:39.213Z,3.67
2018-12-11T00:33:41.390Z,3.70
2018-12-11T00:38:43.577Z,3.72
2018-12-11T00:43:45.689Z,3.72
2018-12-11T00:48:47.966Z,3.73
2018-12-11T00:53:50.153Z,3.82
2018-12-11T00:58:52.325Z,3.80
2018-12-11T01:03:54.497Z,3.77
2018-12-11T01:08:56.651Z,3.66
2018-12-11T01:13:58.890Z,3.68
2018-12-11T01:19:01.061Z,3.86
2018-12-11T01:24:03.346Z,4.36
2018-12-11T01:29:05.509Z,3.83
2018-12-11T01:34:07.705Z,3.87
2018-12-11T01:39:09.870Z,3.93
2018-12-11T01:44:12.656Z,3.96
2018-12-11T01:49:14.743Z,4.09
2018-12-11T01:54:16.814Z,4.15
2018-12-11T01:59:18.988Z,4.18
2018-12-11T02:04:21.165Z,4.14
2018-12-11T02:09:23.381Z,4.13
2018-12-11T02:14:25.686Z,4.10
2018-12-11T02:19:27.847Z,4.13
2018-12-11T02:24:30.289Z,4.04
2018-12-11T02:29:32.587Z,4.05
2018-12-11T02:34:34.879Z,4.13
2018-12-11T02:39:37.163Z,4.14
2018-12-11T02:44:39.246Z,4.07
2018-12-11T02:49:41.321Z,4.18
2018-12-11T02:54:43.503Z,4.21
2018-12-11T02:59:46.609Z,4.25
2018-12-11T03:04:48.775Z,4.19
2018-12-11T03:09:50.877Z,4.20
2018-12-11T03:14:53.067Z,4.19
2018-12-11T03:19:55.229Z,4.18
2018-12-11T03:24:57.658Z,4.18
2018-12-11T03:29:59.739Z,4.17
2018-12-11T03:35:01.911Z,4.21
2018-12-11T03:40:04.597Z,4.24
2018-12-11T03:45:06.877Z,4.27
2018-12-11T03:50:09.674Z,4.25
2018-12-11T03:55:14.722Z,4.20
2018-12-11T04:00:17.285Z,4.16
2018-12-11T04:05:19.644Z,4.14
2018-12-11T04:10:22.869Z,4.07
2018-12-11T04:15:32.787Z,4.05
2018-12-11T04:20:34.851Z,4.01
2018-12-11T04:25:44.051Z,4.09
2018-12-11T04:30:46.342Z,4.17
2018-12-11T04:35:48.386Z,4.18
2018-12-11T04:40:50.561Z,4.31
2018-12-11T04:45:52.751Z,4.19
2018-12-11T04:51:01.838Z,4.19
2018-12-11T04:56:04.117Z,4.23
2018-12-11T05:01:06.323Z,4.24
2018-12-11T05:06:08.522Z,4.24
2018-12-11T05:11:15.061Z,4.22
2018-12-11T05:16:17.274Z,4.25
2018-12-11T05:21:19.430Z,4.24
2018-12-11T05:26:21.629Z,4.31
2018-12-11T05:31:23.809Z,4.26
2018-12-11T05:36:26.085Z,4.23
2018-12-11T05:41:28.163Z,4.22
2018-12-11T05:46:30.426Z,4.12
2018-12-11T05:51:32.641Z,4.07
2018-12-11T05:56:34.805Z,4.15
2018-12-11T06:01:36.858Z,4.12
2018-12-11T06:06:39.045Z,4.07
2018-12-11T06:11:41.245Z,4.06
2018-12-11T06:16:43.671Z,4.10
2018-12-11T06:21:45.848Z,4.13
2018-12-11T06:26:47.893Z,4.25
2018-12-11T06:31:50.074Z,4.23
2018-12-11T06:36:52.377Z,4.23
2018-12-11T06:41:54.578Z,4.32
2018-12-11T06:46:56.649Z,4.24
2018-12-11T06:51:59.235Z,4.31
2018-12-11T06:57:01.307Z,4.31
2018-12-11T07:02:03.583Z,4.31
2018-12-11T07:07:05.965Z,4.32
2018-12-11T07:12:15.187Z,4.34
2018-12-11T07:17:17.373Z,4.32
2018-12-11T07:22:19.576Z,4.33
2018-12-11T07:27:21.649Z,4.33
2018-12-11T07:32:23.981Z,4.28
2018-12-11T07:37:26.143Z,4.29
2018-12-11T07:42:28.313Z,4.28
2018-12-11T07:47:30.617Z,4.29
2018-12-11T07:52:33.030Z,4.29
2018-12-11T07:57:35.281Z,4.22
2018-12-11T08:02:37.465Z,4.18
2018-12-11T08:07:40.670Z,4.22
2018-12-11T08:12:49.758Z,4.20
2018-12-11T08:17:51.921Z,4.18
2018-12-11T08:22:54.106Z,4.19
2018-12-11T08:27:56.313Z,4.17
2018-12-11T08:32:58.377Z,4.22
2018-12-11T08:38:00.433Z,4.20
2018-12-11T08:43:02.518Z,4.20
2018-12-11T08:48:04.709Z,4.14
2018-12-11T08:53:07.358Z,4.18
2018-12-11T08:58:09.566Z,4.12
2018-12-11T09:03:18.566Z,4.03
2018-12-11T09:08:20.766Z,4.06
2018-12-11T09:13:22.855Z,4.05
2018-12-11T09:18:24.946Z,4.09
2018-12-11T09:23:27.133Z,4.07
2018-12-11T09:28:29.431Z,4.12
2018-12-11T09:33:31.726Z,4.17
2018-12-11T09:38:33.834Z,4.20
2018-12-11T09:43:35.890Z,4.21
2018-12-11T09:48:38.081Z,4.27
2018-12-11T09:53:40.203Z,4.25
2018-12-11T09:58:42.450Z,4.25
2018-12-11T10:03:44.509Z,4.27
2018-12-11T10:08:46.655Z,4.27
2018-12-11T10:13:48.886Z,4.24
2018-12-11T10:18:51.049Z,4.27
2018-12-11T10:23:53.233Z,4.30
2018-12-11T10:28:55.549Z,4.27
2018-12-11T10:33:57.864Z,4.33
2018-12-11T10:39:00.062Z,4.36
2018-12-11T10:44:02.366Z,4.37
2018-12-11T10:49:04.681Z,4.40
2018-12-11T10:54:06.885Z,4.44
2018-12-11T10:59:10.286Z,4.45
2018-12-11T11:04:12.995Z,4.42
2018-12-11T11:09:15.115Z,4.46
2018-12-11T11:14:17.435Z,4.45
2018-12-11T11:19:19.590Z,4.45
2018-12-11T11:24:21.763Z,4.46
2018-12-11T11:29:23.960Z,4.44
2018-12-11T11:34:26.002Z,4.39
2018-12-11T11:39:28.198Z,4.40
2018-12-11T11:44:30.421Z,4.39
2018-12-11T11:49:32.556Z,4.37
2018-12-11T11:54:34.809Z,4.31
2018-12-11T11:59:36.986Z,4.39
2018-12-11T12:04:39.041Z,4.39
2018-12-11T12:09:41.247Z,4.56
2018-12-11T12:14:48.908Z,4.53
2018-12-11T12:19:47.645Z,4.53
2018-12-11T12:24:54.905Z,4.53
2018-12-11T12:29:57.098Z,4.52
2018-12-11T12:34:59.259Z,4.53
2018-12-11T12:40:01.456Z,4.54
2018-12-11T12:45:03.825Z,4.52
2018-12-11T12:50:06.077Z,4.51
2018-12-11T12:55:08.201Z,4.52
2018-12-11T13:00:10.811Z,4.52
2018-12-11T13:05:13.075Z,4.54
2018-12-11T13:10:15.385Z,4.54
2018-12-11T13:15:17.466Z,4.55
2018-12-11T13:20:19.537Z,4.59
2018-12-11T13:25:21.585Z,4.56
2018-12-11T13:30:23.630Z,4.50
2018-12-11T13:35:25.688Z,4.58
2018-12-11T13:40:28.057Z,4.57
2018-12-11T13:45:30.157Z,4.52
2018-12-11T13:50:32.656Z,4.52
2018-12-11T13:55:34.717Z,4.46
2018-12-11T14:00:36.774Z,4.46
2018-12-11T14:05:38.934Z,4.49
2018-12-11T14:10:41.019Z,4.44
2018-12-11T14:15:43.105Z,4.54
2018-12-11T14:20:45.269Z,4.63
2018-12-11T14:25:47.420Z,4.46
2018-12-11T14:30:50.593Z,4.47
2018-12-11T14:35:52.925Z,4.53
2018-12-11T14:40:55.102Z,4.45
2018-12-11T14:45:57.273Z,4.50
2018-12-11T14:50:59.348Z,4.45
2018-12-11T14:56:01.569Z,4.44
2018-12-11T15:01:03.857Z,4.40
2018-12-11T15:06:05.926Z,4.45
2018-12-11T15:11:08.271Z,4.29
2018-12-11T15:16:10.770Z,4.26
2018-12-11T15:21:12.948Z,4.30
2018-12-11T15:26:15.226Z,4.31
2018-12-11T15:31:19.250Z,4.27
2018-12-11T15:36:21.419Z,4.27
2018-12-11T15:41:23.601Z,4.28
2018-12-11T15:46:26.025Z,4.04
2018-12-11T15:51:28.209Z,4.01
2018-12-11T15:56:30.509Z,3.98
2018-12-11T16:01:32.952Z,3.97
2018-12-11T16:06:35.245Z,3.82
2018-12-11T16:11:37.724Z,3.90
2018-12-11T16:16:40.098Z,3.90
2018-12-11T16:21:42.242Z,3.89
2018-12-11T16:26:44.397Z,3.84
2018-12-11T16:31:46.686Z,3.81
2018-12-11T16:36:48.857Z,3.80
2018-12-11T16:41:51.018Z,3.81
2018-12-11T16:46:53.354Z,3.81
2018-12-11T16:51:55.443Z,3.70
2018-12-11T16:56:57.828Z,3.66
2018-12-11T17:02:00.158Z,3.61
2018-12-11T17:07:02.425Z,3.62
2018-12-11T17:12:12.510Z,3.56
2018-12-11T17:17:14.861Z,3.54
2018-12-11T17:22:17.002Z,3.65
2018-12-11T17:27:19.264Z,3.78
2018-12-11T17:32:21.651Z,3.81
2018-12-11T17:37:23.897Z,3.80
2018-12-11T17:42:26.229Z,3.75
2018-12-11T17:47:28.418Z,3.71
2018-12-11T17:52:30.474Z,3.69
2018-12-11T17:57:32.813Z,3.72
2018-12-11T18:02:37.171Z,3.71
2018-12-11T18:07:39.465Z,3.74
2018-12-11T18:12:41.582Z,3.79
2018-12-11T18:17:43.661Z,3.74
2018-12-11T18:22:45.933Z,3.57
2018-12-11T18:27:48.111Z,3.52
2018-12-11T18:32:50.216Z,3.49
2018-12-11T18:37:52.441Z,3.51
2018-12-11T18:42:54.493Z,3.54
2018-12-11T18:47:56.722Z,3.59
2018-12-11T18:52:58.797Z,3.63
2018-12-11T18:58:01.272Z,3.70
2018-12-11T19:03:03.907Z,3.71
2018-12-11T19:08:07.389Z,3.66
2018-12-11T19:13:09.559Z,3.69
2018-12-11T19:18:11.957Z,3.72
2018-12-11T19:23:28.509Z,3.65
2018-12-11T19:28:30.773Z,3.65
2018-12-11T19:33:32.957Z,3.71
2018-12-11T19:38:35.257Z,3.65
2018-12-11T19:43:37.453Z,3.67
2018-12-11T19:48:39.762Z,3.41
2018-12-11T19:53:42.036Z,3.31
2018-12-11T19:58:44.649Z,3.24
2018-12-11T20:03:46.854Z,3.24
2018-12-11T20:08:49.143Z,3.14
2018-12-11T20:13:51.342Z,3.19
2018-12-11T20:18:53.498Z,3.19
2018-12-11T20:23:55.909Z,3.24
2018-12-11T20:28:58.214Z,3.36
2018-12-11T20:34:00.763Z,3.38
2018-12-11T20:39:04.802Z,3.36
2018-12-11T20:44:13.758Z,3.33
2018-12-11T20:49:15.815Z,3.35
2018-12-11T20:54:17.857Z,3.30
2018-12-11T20:59:26.957Z,3.35
2018-12-11T21:04:30.006Z,3.28
2018-12-11T21:09:32.569Z,3.36
2018-12-11T21:14:34.853Z,3.34
2018-12-11T21:19:37.768Z,3.43
2018-12-11T21:24:39.917Z,3.43
2018-12-11T21:29:42.013Z,3.47
2018-12-11T21:34:44.166Z,3.48
2018-12-11T21:39:46.222Z,3.40
2018-12-11T21:44:55.241Z,3.37
2018-12-11T21:49:57.339Z,3.33
2018-12-11T21:55:00.253Z,3.36
2018-12-11T22:00:03.102Z,3.31
2018-12-11T22:05:06.986Z,3.29
2018-12-11T22:10:09.486Z,3.27
2018-12-11T22:15:11.961Z,3.25
2018-12-11T22:20:14.143Z,3.20
2018-12-11T22:25:19.311Z,3.21
2018-12-11T22:30:21.490Z,3.17
2018-12-11T22:35:23.653Z,3.12
2018-12-11T22:40:25.833Z,3.11
2018-12-11T22:45:27.994Z,3.13
2018-12-11T22:50:30.157Z,3.04
2018-12-11T22:55:32.504Z,3.15
2018-12-11T23:00:34.773Z,3.11
2018-12-11T23:05:38.917Z,3.13
2018-12-11T23:10:41.499Z,3.12
2018-12-11T23:15:44.497Z,3.16
2018-12-11T23:20:46.577Z,3.17
2018-12-11T23:25:48.777Z,3.10
2018-12-11T23:30:51.133Z,3.18
2018-12-11T23:35:53.745Z,3.16
2018-12-11T23:40:56.051Z,3.14
2018-12-11T23:45:58.129Z,3.19
2018-12-11T23:51:00.205Z,3.09
2018-12-11T23:56:02.618Z,3.09
